sensor_id;sensor_type;location;lat;lon;timestamp;P1;durP1;ratioP1;P2;durP2;ratioP2
74658;SDS011;63186;51.204;6.536;2023-04-24T00:00:10;2.80;;;1.37;;
74658;SDS011;63186;51.204;6.536;2023-04-24T00:02:37;2.83;;;1.10;;
74658;SDS011;63186;51.204;6.536;2023-04-24T00:05:04;1.88;;;1.10;;
74658;SDS011;63186;51.204;6.536;2023-04-24T00:07:29;2.03;;;1.17;;
74658;SDS011;63186;51.204;6.536;2023-04-24T00:09:55;3.13;;;1.15;;
74658;SDS011;63186;51.204;6.536;2023-04-24T00:12:20;2.03;;;0.90;;
74658;SDS011;63186;51.204;6.536;2023-04-24T00:14:45;1.80;;;1.10;;
74658;SDS011;63186;51.204;6.536;2023-04-24T00:17:10;3.60;;;1.20;;
74658;SDS011;63186;51.204;6.536;2023-04-24T00:19:35;2.73;;;1.40;;
74658;SDS011;63186;51.204;6.536;2023-04-24T00:22:01;2.95;;;1.63;;
74658;SDS011;63186;51.204;6.536;2023-04-24T00:24:26;4.65;;;2.10;;
74658;SDS011;63186;51.204;6.536;2023-04-24T00:26:52;3.78;;;1.65;;
74658;SDS011;63186;51.204;6.536;2023-04-24T00:29:17;3.13;;;1.47;;
74658;SDS011;63186;51.204;6.536;2023-04-24T00:31:42;3.93;;;1.70;;
74658;SDS011;63186;51.204;6.536;2023-04-24T00:34:07;2.60;;;1.57;;
74658;SDS011;63186;51.204;6.536;2023-04-24T00:36:33;3.13;;;1.63;;
74658;SDS011;63186;51.204;6.536;2023-04-24T00:38:58;4.05;;;1.90;;
74658;SDS011;63186;51.204;6.536;2023-04-24T00:41:24;4.17;;;1.80;;
74658;SDS011;63186;51.204;6.536;2023-04-24T00:43:49;4.53;;;1.75;;
74658;SDS011;63186;51.204;6.536;2023-04-24T00:46:14;4.63;;;2.30;;
74658;SDS011;63186;51.204;6.536;2023-04-24T00:48:40;5.13;;;2.05;;
74658;SDS011;63186;51.204;6.536;2023-04-24T00:51:06;6.97;;;2.10;;
74658;SDS011;63186;51.204;6.536;2023-04-24T00:53:31;4.60;;;2.27;;
74658;SDS011;63186;51.204;6.536;2023-04-24T00:55:57;4.22;;;2.35;;
74658;SDS011;63186;51.204;6.536;2023-04-24T00:58:22;6.23;;;2.40;;
74658;SDS011;63186;51.204;6.536;2023-04-24T01:00:48;5.60;;;2.72;;
74658;SDS011;63186;51.204;6.536;2023-04-24T01:03:13;4.22;;;1.90;;
74658;SDS011;63186;51.204;6.536;2023-04-24T01:05:39;6.27;;;2.30;;
74658;SDS011;63186;51.204;6.536;2023-04-24T01:08:04;4.37;;;2.20;;
74658;SDS011;63186;51.204;6.536;2023-04-24T01:10:29;4.47;;;1.90;;
74658;SDS011;63186;51.204;6.536;2023-04-24T01:12:55;4.13;;;2.10;;
74658;SDS011;63186;51.204;6.536;2023-04-24T01:15:21;6.72;;;2.22;;
74658;SDS011;63186;51.204;6.536;2023-04-24T01:17:46;6.83;;;2.77;;
74658;SDS011;63186;51.204;6.536;2023-04-24T01:20:11;5.57;;;2.70;;
74658;SDS011;63186;51.204;6.536;2023-04-24T01:22:37;6.25;;;2.42;;
74658;SDS011;63186;51.204;6.536;2023-04-24T01:25:03;5.43;;;2.67;;
74658;SDS011;63186;51.204;6.536;2023-04-24T01:27:28;6.80;;;2.47;;
74658;SDS011;63186;51.204;6.536;2023-04-24T01:29:54;8.00;;;3.60;;
74658;SDS011;63186;51.204;6.536;2023-04-24T01:32:19;6.83;;;2.87;;
74658;SDS011;63186;51.204;6.536;2023-04-24T01:34:44;9.40;;;4.17;;
74658;SDS011;63186;51.204;6.536;2023-04-24T01:37:10;8.45;;;3.75;;
74658;SDS011;63186;51.204;6.536;2023-04-24T01:39:35;6.78;;;2.95;;
74658;SDS011;63186;51.204;6.536;2023-04-24T01:42:01;6.75;;;3.33;;
74658;SDS011;63186;51.204;6.536;2023-04-24T01:44:27;6.40;;;3.22;;
74658;SDS011;63186;51.204;6.536;2023-04-24T01:46:52;7.18;;;3.25;;
74658;SDS011;63186;51.204;6.536;2023-04-24T01:49:19;7.43;;;3.15;;
74658;SDS011;63186;51.204;6.536;2023-04-24T01:51:44;8.50;;;3.73;;
74658;SDS011;63186;51.204;6.536;2023-04-24T01:54:09;6.93;;;3.90;;
74658;SDS011;63186;51.204;6.536;2023-04-24T01:56:34;8.83;;;4.10;;
74658;SDS011;63186;51.204;6.536;2023-04-24T01:59:00;7.70;;;3.05;;
74658;SDS011;63186;51.204;6.536;2023-04-24T02:01:27;10.68;;;3.63;;
74658;SDS011;63186;51.204;6.536;2023-04-24T02:03:52;7.83;;;3.33;;
74658;SDS011;63186;51.204;6.536;2023-04-24T02:06:17;6.13;;;3.03;;
74658;SDS011;63186;51.204;6.536;2023-04-24T02:08:42;9.30;;;4.33;;
74658;SDS011;63186;51.204;6.536;2023-04-24T02:11:08;8.33;;;4.03;;
74658;SDS011;63186;51.204;6.536;2023-04-24T02:13:33;9.55;;;4.88;;
74658;SDS011;63186;51.204;6.536;2023-04-24T02:15:58;9.13;;;4.30;;
74658;SDS011;63186;51.204;6.536;2023-04-24T02:18:24;8.50;;;3.77;;
74658;SDS011;63186;51.204;6.536;2023-04-24T02:20:49;9.13;;;3.83;;
74658;SDS011;63186;51.204;6.536;2023-04-24T02:23:14;9.27;;;4.57;;
74658;SDS011;63186;51.204;6.536;2023-04-24T02:25:40;12.77;;;5.00;;
74658;SDS011;63186;51.204;6.536;2023-04-24T02:28:05;9.57;;;4.50;;
74658;SDS011;63186;51.204;6.536;2023-04-24T02:30:30;14.07;;;5.00;;
74658;SDS011;63186;51.204;6.536;2023-04-24T02:32:55;11.50;;;5.30;;
74658;SDS011;63186;51.204;6.536;2023-04-24T02:35:20;10.33;;;4.57;;
74658;SDS011;63186;51.204;6.536;2023-04-24T02:37:46;11.47;;;5.13;;
74658;SDS011;63186;51.204;6.536;2023-04-24T02:40:11;11.53;;;5.03;;
74658;SDS011;63186;51.204;6.536;2023-04-24T02:42:36;9.63;;;5.63;;
74658;SDS011;63186;51.204;6.536;2023-04-24T02:45:01;9.00;;;4.23;;
74658;SDS011;63186;51.204;6.536;2023-04-24T02:47:26;8.77;;;4.93;;
74658;SDS011;63186;51.204;6.536;2023-04-24T02:49:52;12.53;;;5.93;;
74658;SDS011;63186;51.204;6.536;2023-04-24T02:52:17;6.27;;;4.33;;
74658;SDS011;63186;51.204;6.536;2023-04-24T02:54:42;13.50;;;4.93;;
74658;SDS011;63186;51.204;6.536;2023-04-24T02:57:08;12.93;;;6.03;;
74658;SDS011;63186;51.204;6.536;2023-04-24T02:59:33;10.43;;;5.33;;
74658;SDS011;63186;51.204;6.536;2023-04-24T03:01:58;11.27;;;4.93;;
74658;SDS011;63186;51.204;6.536;2023-04-24T03:04:23;11.15;;;5.45;;
74658;SDS011;63186;51.204;6.536;2023-04-24T03:06:48;9.53;;;4.93;;
74658;SDS011;63186;51.204;6.536;2023-04-24T03:09:13;13.25;;;4.70;;
74658;SDS011;63186;51.204;6.536;2023-04-24T03:11:39;8.70;;;4.40;;
74658;SDS011;63186;51.204;6.536;2023-04-24T03:14:05;10.75;;;4.85;;
74658;SDS011;63186;51.204;6.536;2023-04-24T03:16:30;8.37;;;4.30;;
74658;SDS011;63186;51.204;6.536;2023-04-24T03:18:55;8.17;;;4.20;;
74658;SDS011;63186;51.204;6.536;2023-04-24T03:21:21;8.57;;;4.70;;
74658;SDS011;63186;51.204;6.536;2023-04-24T03:23:46;9.47;;;4.60;;
74658;SDS011;63186;51.204;6.536;2023-04-24T03:26:11;8.17;;;4.07;;
74658;SDS011;63186;51.204;6.536;2023-04-24T03:28:36;8.93;;;5.23;;
74658;SDS011;63186;51.204;6.536;2023-04-24T03:31:02;12.77;;;4.63;;
74658;SDS011;63186;51.204;6.536;2023-04-24T03:33:27;10.02;;;4.80;;
74658;SDS011;63186;51.204;6.536;2023-04-24T03:35:52;9.20;;;4.33;;
74658;SDS011;63186;51.204;6.536;2023-04-24T03:38:18;12.47;;;5.13;;
74658;SDS011;63186;51.204;6.536;2023-04-24T03:40:43;9.37;;;5.03;;
74658;SDS011;63186;51.204;6.536;2023-04-24T03:43:08;8.10;;;4.43;;
74658;SDS011;63186;51.204;6.536;2023-04-24T03:45:33;7.47;;;4.13;;
74658;SDS011;63186;51.204;6.536;2023-04-24T03:47:58;10.10;;;4.63;;
74658;SDS011;63186;51.204;6.536;2023-04-24T03:50:23;10.97;;;4.53;;
74658;SDS011;63186;51.204;6.536;2023-04-24T03:52:49;10.77;;;5.03;;
74658;SDS011;63186;51.204;6.536;2023-04-24T03:55:14;10.67;;;5.93;;
74658;SDS011;63186;51.204;6.536;2023-04-24T03:57:40;10.27;;;4.30;;
74658;SDS011;63186;51.204;6.536;2023-04-24T04:00:05;9.18;;;4.57;;
74658;SDS011;63186;51.204;6.536;2023-04-24T04:02:31;7.90;;;4.45;;
74658;SDS011;63186;51.204;6.536;2023-04-24T04:04:56;9.60;;;4.30;;
74658;SDS011;63186;51.204;6.536;2023-04-24T04:07:21;10.00;;;5.57;;
74658;SDS011;63186;51.204;6.536;2023-04-24T04:09:46;8.33;;;4.33;;
74658;SDS011;63186;51.204;6.536;2023-04-24T04:12:11;8.23;;;5.07;;
74658;SDS011;63186;51.204;6.536;2023-04-24T04:14:37;9.27;;;4.40;;
74658;SDS011;63186;51.204;6.536;2023-04-24T04:17:03;8.85;;;4.00;;
74658;SDS011;63186;51.204;6.536;2023-04-24T04:19:28;10.30;;;4.27;;
74658;SDS011;63186;51.204;6.536;2023-04-24T04:21:53;12.55;;;4.07;;
74658;SDS011;63186;51.204;6.536;2023-04-24T04:24:21;7.90;;;3.65;;
74658;SDS011;63186;51.204;6.536;2023-04-24T04:26:47;7.43;;;3.70;;
74658;SDS011;63186;51.204;6.536;2023-04-24T04:29:13;13.93;;;4.93;;
74658;SDS011;63186;51.204;6.536;2023-04-24T04:31:38;10.32;;;4.32;;
74658;SDS011;63186;51.204;6.536;2023-04-24T04:34:03;9.17;;;4.50;;
74658;SDS011;63186;51.204;6.536;2023-04-24T04:36:28;9.77;;;4.73;;
74658;SDS011;63186;51.204;6.536;2023-04-24T04:38:54;9.38;;;4.53;;
74658;SDS011;63186;51.204;6.536;2023-04-24T04:41:19;9.40;;;3.67;;
74658;SDS011;63186;51.204;6.536;2023-04-24T04:43:45;7.85;;;3.42;;
74658;SDS011;63186;51.204;6.536;2023-04-24T04:46:11;8.10;;;4.45;;
74658;SDS011;63186;51.204;6.536;2023-04-24T04:48:36;10.03;;;5.30;;
74658;SDS011;63186;51.204;6.536;2023-04-24T04:51:02;9.52;;;4.25;;
74658;SDS011;63186;51.204;6.536;2023-04-24T04:53:27;8.17;;;4.13;;
74658;SDS011;63186;51.204;6.536;2023-04-24T04:55:52;8.20;;;4.03;;
74658;SDS011;63186;51.204;6.536;2023-04-24T04:58:17;9.97;;;5.07;;
74658;SDS011;63186;51.204;6.536;2023-04-24T05:00:43;8.37;;;4.10;;
74658;SDS011;63186;51.204;6.536;2023-04-24T05:03:08;8.23;;;4.17;;
74658;SDS011;63186;51.204;6.536;2023-04-24T05:05:33;8.35;;;4.32;;
74658;SDS011;63186;51.204;6.536;2023-04-24T05:07:58;11.67;;;4.30;;
74658;SDS011;63186;51.204;6.536;2023-04-24T05:10:23;10.33;;;4.43;;
74658;SDS011;63186;51.204;6.536;2023-04-24T05:12:49;8.37;;;4.03;;
74658;SDS011;63186;51.204;6.536;2023-04-24T05:15:14;10.32;;;4.55;;
74658;SDS011;63186;51.204;6.536;2023-04-24T05:17:39;6.87;;;3.23;;
74658;SDS011;63186;51.204;6.536;2023-04-24T05:20:05;7.80;;;4.63;;
74658;SDS011;63186;51.204;6.536;2023-04-24T05:22:31;7.55;;;3.90;;
74658;SDS011;63186;51.204;6.536;2023-04-24T05:24:56;7.47;;;3.90;;
74658;SDS011;63186;51.204;6.536;2023-04-24T05:27:22;9.65;;;4.25;;
74658;SDS011;63186;51.204;6.536;2023-04-24T05:29:47;7.27;;;4.27;;
74658;SDS011;63186;51.204;6.536;2023-04-24T05:32:12;8.33;;;4.17;;
74658;SDS011;63186;51.204;6.536;2023-04-24T05:34:37;6.43;;;3.57;;
74658;SDS011;63186;51.204;6.536;2023-04-24T05:37:03;5.93;;;3.03;;
74658;SDS011;63186;51.204;6.536;2023-04-24T05:39:28;9.40;;;4.20;;
74658;SDS011;63186;51.204;6.536;2023-04-24T05:41:53;10.90;;;4.50;;
74658;SDS011;63186;51.204;6.536;2023-04-24T05:44:19;9.38;;;4.15;;
74658;SDS011;63186;51.204;6.536;2023-04-24T05:46:45;7.47;;;3.57;;
74658;SDS011;63186;51.204;6.536;2023-04-24T05:49:10;7.73;;;3.60;;
74658;SDS011;63186;51.204;6.536;2023-04-24T05:51:35;4.82;;;2.13;;
74658;SDS011;63186;51.204;6.536;2023-04-24T05:54:00;6.93;;;3.23;;
74658;SDS011;63186;51.204;6.536;2023-04-24T05:56:26;7.22;;;3.15;;
74658;SDS011;63186;51.204;6.536;2023-04-24T05:58:51;7.13;;;3.07;;
74658;SDS011;63186;51.204;6.536;2023-04-24T06:01:17;9.00;;;3.37;;
74658;SDS011;63186;51.204;6.536;2023-04-24T06:03:43;7.43;;;3.65;;
74658;SDS011;63186;51.204;6.536;2023-04-24T06:06:08;4.15;;;2.28;;
74658;SDS011;63186;51.204;6.536;2023-04-24T06:08:34;8.07;;;4.10;;
74658;SDS011;63186;51.204;6.536;2023-04-24T06:10:59;5.55;;;2.58;;
74658;SDS011;63186;51.204;6.536;2023-04-24T06:13:24;6.80;;;2.50;;
74658;SDS011;63186;51.204;6.536;2023-04-24T06:15:49;5.23;;;2.13;;
74658;SDS011;63186;51.204;6.536;2023-04-24T06:18:15;6.23;;;3.17;;
74658;SDS011;63186;51.204;6.536;2023-04-24T06:20:40;6.03;;;2.90;;
74658;SDS011;63186;51.204;6.536;2023-04-24T06:23:05;5.87;;;2.63;;
74658;SDS011;63186;51.204;6.536;2023-04-24T06:25:30;4.78;;;2.03;;
74658;SDS011;63186;51.204;6.536;2023-04-24T06:27:56;6.80;;;2.92;;
74658;SDS011;63186;51.204;6.536;2023-04-24T06:30:22;7.43;;;3.40;;
74658;SDS011;63186;51.204;6.536;2023-04-24T06:32:47;6.07;;;3.30;;
74658;SDS011;63186;51.204;6.536;2023-04-24T06:35:12;6.40;;;2.97;;
74658;SDS011;63186;51.204;6.536;2023-04-24T06:37:41;6.03;;;3.10;;
74658;SDS011;63186;51.204;6.536;2023-04-24T06:40:06;7.72;;;3.13;;
74658;SDS011;63186;51.204;6.536;2023-04-24T06:42:32;7.25;;;2.40;;
74658;SDS011;63186;51.204;6.536;2023-04-24T06:44:57;7.75;;;3.90;;
74658;SDS011;63186;51.204;6.536;2023-04-24T06:47:22;7.33;;;3.27;;
74658;SDS011;63186;51.204;6.536;2023-04-24T06:49:47;6.00;;;2.20;;
74658;SDS011;63186;51.204;6.536;2023-04-24T06:52:12;5.47;;;2.78;;
74658;SDS011;63186;51.204;6.536;2023-04-24T06:54:38;4.13;;;1.80;;
74658;SDS011;63186;51.204;6.536;2023-04-24T06:57:03;6.57;;;1.90;;
74658;SDS011;63186;51.204;6.536;2023-04-24T06:59:28;4.63;;;2.03;;
74658;SDS011;63186;51.204;6.536;2023-04-24T07:01:54;4.77;;;2.43;;
74658;SDS011;63186;51.204;6.536;2023-04-24T07:04:19;6.07;;;2.38;;
74658;SDS011;63186;51.204;6.536;2023-04-24T07:06:45;4.27;;;2.57;;
74658;SDS011;63186;51.204;6.536;2023-04-24T07:09:10;5.47;;;2.38;;
74658;SDS011;63186;51.204;6.536;2023-04-24T07:11:36;3.33;;;1.20;;
74658;SDS011;63186;51.204;6.536;2023-04-24T07:14:02;2.33;;;1.10;;
74658;SDS011;63186;51.204;6.536;2023-04-24T07:16:28;3.27;;;1.33;;
74658;SDS011;63186;51.204;6.536;2023-04-24T07:18:53;1.20;;;0.70;;
74658;SDS011;63186;51.204;6.536;2023-04-24T07:21:18;1.03;;;0.83;;
74658;SDS011;63186;51.204;6.536;2023-04-24T07:23:43;0.57;;;0.57;;
74658;SDS011;63186;51.204;6.536;2023-04-24T07:26:08;1.00;;;0.60;;
74658;SDS011;63186;51.204;6.536;2023-04-24T07:28:33;2.17;;;1.00;;
74658;SDS011;63186;51.204;6.536;2023-04-24T07:30:58;1.50;;;0.80;;
74658;SDS011;63186;51.204;6.536;2023-04-24T07:33:24;0.68;;;0.43;;
74658;SDS011;63186;51.204;6.536;2023-04-24T07:35:50;3.03;;;0.80;;
74658;SDS011;63186;51.204;6.536;2023-04-24T07:38:15;0.50;;;0.50;;
74658;SDS011;63186;51.204;6.536;2023-04-24T07:40:40;1.00;;;0.80;;
74658;SDS011;63186;51.204;6.536;2023-04-24T07:43:05;0.83;;;0.57;;
74658;SDS011;63186;51.204;6.536;2023-04-24T07:45:30;0.50;;;0.50;;
74658;SDS011;63186;51.204;6.536;2023-04-24T07:47:56;0.43;;;0.40;;
74658;SDS011;63186;51.204;6.536;2023-04-24T07:50:21;1.27;;;0.63;;
74658;SDS011;63186;51.204;6.536;2023-04-24T07:52:46;0.85;;;0.82;;
74658;SDS011;63186;51.204;6.536;2023-04-24T07:55:12;2.15;;;1.50;;
74658;SDS011;63186;51.204;6.536;2023-04-24T07:57:37;1.37;;;0.87;;
74658;SDS011;63186;51.204;6.536;2023-04-24T08:00:03;1.50;;;0.87;;
74658;SDS011;63186;51.204;6.536;2023-04-24T08:02:28;2.40;;;1.23;;
74658;SDS011;63186;51.204;6.536;2023-04-24T08:04:54;2.28;;;1.35;;
74658;SDS011;63186;51.204;6.536;2023-04-24T08:07:19;3.17;;;1.90;;
74658;SDS011;63186;51.204;6.536;2023-04-24T08:09:45;3.25;;;1.20;;
74658;SDS011;63186;51.204;6.536;2023-04-24T08:12:10;2.10;;;1.00;;
74658;SDS011;63186;51.204;6.536;2023-04-24T08:14:35;4.70;;;1.73;;
74658;SDS011;63186;51.204;6.536;2023-04-24T08:17:00;4.28;;;1.83;;
74658;SDS011;63186;51.204;6.536;2023-04-24T08:19:26;4.40;;;2.15;;
74658;SDS011;63186;51.204;6.536;2023-04-24T08:21:51;5.20;;;2.17;;
74658;SDS011;63186;51.204;6.536;2023-04-24T08:24:16;3.28;;;1.70;;
74658;SDS011;63186;51.204;6.536;2023-04-24T08:26:41;2.37;;;1.37;;
74658;SDS011;63186;51.204;6.536;2023-04-24T08:29:06;2.63;;;1.23;;
74658;SDS011;63186;51.204;6.536;2023-04-24T08:31:32;2.83;;;1.30;;
74658;SDS011;63186;51.204;6.536;2023-04-24T08:33:57;2.65;;;1.30;;
74658;SDS011;63186;51.204;6.536;2023-04-24T08:36:22;3.43;;;1.50;;
74658;SDS011;63186;51.204;6.536;2023-04-24T08:38:48;0.90;;;0.80;;
74658;SDS011;63186;51.204;6.536;2023-04-24T08:41:13;1.17;;;0.73;;
74658;SDS011;63186;51.204;6.536;2023-04-24T08:43:39;3.08;;;1.10;;
74658;SDS011;63186;51.204;6.536;2023-04-24T08:46:05;3.97;;;1.30;;
74658;SDS011;63186;51.204;6.536;2023-04-24T08:48:30;9.13;;;1.50;;
74658;SDS011;63186;51.204;6.536;2023-04-24T08:50:56;2.10;;;1.17;;
74658;SDS011;63186;51.204;6.536;2023-04-24T08:53:21;2.47;;;1.43;;
74658;SDS011;63186;51.204;6.536;2023-04-24T08:55:47;1.95;;;1.17;;
74658;SDS011;63186;51.204;6.536;2023-04-24T08:58:13;2.60;;;1.40;;
74658;SDS011;63186;51.204;6.536;2023-04-24T09:00:39;3.28;;;1.27;;
74658;SDS011;63186;51.204;6.536;2023-04-24T09:03:04;4.38;;;2.25;;
74658;SDS011;63186;51.204;6.536;2023-04-24T09:05:30;3.70;;;1.73;;
74658;SDS011;63186;51.204;6.536;2023-04-24T09:07:56;4.43;;;1.63;;
74658;SDS011;63186;51.204;6.536;2023-04-24T09:10:22;6.93;;;2.80;;
74658;SDS011;63186;51.204;6.536;2023-04-24T09:12:48;3.75;;;1.90;;
74658;SDS011;63186;51.204;6.536;2023-04-24T09:15:14;4.03;;;1.70;;
74658;SDS011;63186;51.204;6.536;2023-04-24T09:17:40;7.40;;;2.20;;
74658;SDS011;63186;51.204;6.536;2023-04-24T09:20:05;3.30;;;1.80;;
74658;SDS011;63186;51.204;6.536;2023-04-24T09:22:30;5.35;;;2.47;;
74658;SDS011;63186;51.204;6.536;2023-04-24T09:25:02;6.67;;;2.60;;
74658;SDS011;63186;51.204;6.536;2023-04-24T09:27:28;7.28;;;2.47;;
74658;SDS011;63186;51.204;6.536;2023-04-24T09:29:54;6.50;;;2.33;;
74658;SDS011;63186;51.204;6.536;2023-04-24T09:32:21;5.10;;;2.30;;
74658;SDS011;63186;51.204;6.536;2023-04-24T09:34:47;7.07;;;2.15;;
74658;SDS011;63186;51.204;6.536;2023-04-24T09:37:14;5.90;;;2.08;;
74658;SDS011;63186;51.204;6.536;2023-04-24T09:39:43;5.85;;;2.80;;
74658;SDS011;63186;51.204;6.536;2023-04-24T09:42:08;7.35;;;3.65;;
74658;SDS011;63186;51.204;6.536;2023-04-24T09:44:34;6.17;;;2.43;;
74658;SDS011;63186;51.204;6.536;2023-04-24T09:46:59;8.63;;;3.88;;
74658;SDS011;63186;51.204;6.536;2023-04-24T09:49:25;6.88;;;3.28;;
74658;SDS011;63186;51.204;6.536;2023-04-24T09:51:50;6.15;;;3.05;;
74658;SDS011;63186;51.204;6.536;2023-04-24T09:54:17;6.05;;;3.30;;
74658;SDS011;63186;51.204;6.536;2023-04-24T09:56:43;5.70;;;2.67;;
74658;SDS011;63186;51.204;6.536;2023-04-24T09:59:10;7.13;;;2.72;;
74658;SDS011;63186;51.204;6.536;2023-04-24T10:01:35;8.97;;;3.20;;
74658;SDS011;63186;51.204;6.536;2023-04-24T10:04:01;5.10;;;2.20;;
74658;SDS011;63186;51.204;6.536;2023-04-24T10:06:35;6.78;;;3.33;;
74658;SDS011;63186;51.204;6.536;2023-04-24T10:09:00;7.93;;;2.70;;
74658;SDS011;63186;51.204;6.536;2023-04-24T10:11:26;8.35;;;3.08;;
74658;SDS011;63186;51.204;6.536;2023-04-24T10:13:52;5.85;;;2.85;;
74658;SDS011;63186;51.204;6.536;2023-04-24T10:16:17;7.00;;;2.23;;
74658;SDS011;63186;51.204;6.536;2023-04-24T10:18:43;6.75;;;3.05;;
74658;SDS011;63186;51.204;6.536;2023-04-24T10:21:08;5.22;;;1.80;;
74658;SDS011;63186;51.204;6.536;2023-04-24T10:23:33;4.73;;;2.40;;
74658;SDS011;63186;51.204;6.536;2023-04-24T10:26:00;4.30;;;1.90;;
74658;SDS011;63186;51.204;6.536;2023-04-24T10:28:25;6.47;;;2.47;;
74658;SDS011;63186;51.204;6.536;2023-04-24T10:30:51;6.63;;;2.15;;
74658;SDS011;63186;51.204;6.536;2023-04-24T10:33:19;6.45;;;2.13;;
74658;SDS011;63186;51.204;6.536;2023-04-24T10:35:47;4.22;;;1.83;;
74658;SDS011;63186;51.204;6.536;2023-04-24T10:38:14;5.28;;;1.85;;
74658;SDS011;63186;51.204;6.536;2023-04-24T10:40:40;4.72;;;2.33;;
74658;SDS011;63186;51.204;6.536;2023-04-24T10:43:07;5.60;;;1.63;;
74658;SDS011;63186;51.204;6.536;2023-04-24T10:48:04;4.72;;;1.80;;
74658;SDS011;63186;51.204;6.536;2023-04-24T10:50:45;4.25;;;2.22;;
74658;SDS011;63186;51.204;6.536;2023-04-24T10:53:17;5.53;;;3.35;;
74658;SDS011;63186;51.204;6.536;2023-04-24T10:55:47;3.88;;;1.42;;
74658;SDS011;63186;51.204;6.536;2023-04-24T10:58:13;2.47;;;1.42;;
74658;SDS011;63186;51.204;6.536;2023-04-24T11:00:40;6.07;;;1.70;;
74658;SDS011;63186;51.204;6.536;2023-04-24T11:03:06;4.65;;;2.03;;
74658;SDS011;63186;51.204;6.536;2023-04-24T11:08:21;4.65;;;1.98;;
74658;SDS011;63186;51.204;6.536;2023-04-24T11:10:47;4.65;;;1.35;;
74658;SDS011;63186;51.204;6.536;2023-04-24T11:13:15;4.47;;;1.63;;
74658;SDS011;63186;51.204;6.536;2023-04-24T11:15:41;3.35;;;1.67;;
74658;SDS011;63186;51.204;6.536;2023-04-24T11:18:07;5.18;;;1.83;;
74658;SDS011;63186;51.204;6.536;2023-04-24T11:20:38;3.92;;;1.48;;
74658;SDS011;63186;51.204;6.536;2023-04-24T11:23:06;4.85;;;1.95;;
74658;SDS011;63186;51.204;6.536;2023-04-24T11:25:32;2.92;;;1.38;;
74658;SDS011;63186;51.204;6.536;2023-04-24T11:28:04;4.43;;;1.70;;
74658;SDS011;63186;51.204;6.536;2023-04-24T11:30:30;5.70;;;1.88;;
74658;SDS011;63186;51.204;6.536;2023-04-24T11:32:55;6.18;;;2.30;;
74658;SDS011;63186;51.204;6.536;2023-04-24T11:35:26;4.10;;;1.77;;
74658;SDS011;63186;51.204;6.536;2023-04-24T11:37:53;2.55;;;1.08;;
74658;SDS011;63186;51.204;6.536;2023-04-24T11:40:19;3.90;;;1.80;;
74658;SDS011;63186;51.204;6.536;2023-04-24T11:42:49;6.57;;;1.50;;
74658;SDS011;63186;51.204;6.536;2023-04-24T11:45:15;2.60;;;1.23;;
74658;SDS011;63186;51.204;6.536;2023-04-24T11:47:41;3.22;;;1.17;;
74658;SDS011;63186;51.204;6.536;2023-04-24T11:50:07;4.03;;;1.58;;
74658;SDS011;63186;51.204;6.536;2023-04-24T11:52:33;4.38;;;1.60;;
74658;SDS011;63186;51.204;6.536;2023-04-24T11:54:58;3.08;;;1.25;;
74658;SDS011;63186;51.204;6.536;2023-04-24T11:57:24;2.28;;;1.27;;
74658;SDS011;63186;51.204;6.536;2023-04-24T11:59:52;3.58;;;1.35;;
74658;SDS011;63186;51.204;6.536;2023-04-24T12:02:24;3.40;;;1.27;;
74658;SDS011;63186;51.204;6.536;2023-04-24T12:04:49;4.13;;;1.40;;
74658;SDS011;63186;51.204;6.536;2023-04-24T12:07:14;3.22;;;1.45;;
74658;SDS011;63186;51.204;6.536;2023-04-24T12:12:08;2.25;;;1.30;;
74658;SDS011;63186;51.204;6.536;2023-04-24T12:14:41;2.23;;;1.47;;
74658;SDS011;63186;51.204;6.536;2023-04-24T12:17:06;0.93;;;0.85;;
74658;SDS011;63186;51.204;6.536;2023-04-24T12:19:31;2.10;;;1.37;;
74658;SDS011;63186;51.204;6.536;2023-04-24T12:22:00;1.90;;;1.10;;
74658;SDS011;63186;51.204;6.536;2023-04-24T12:24:26;3.60;;;0.98;;
74658;SDS011;63186;51.204;6.536;2023-04-24T12:26:51;5.43;;;1.40;;
74658;SDS011;63186;51.204;6.536;2023-04-24T12:29:19;1.83;;;1.00;;
74658;SDS011;63186;51.204;6.536;2023-04-24T12:31:45;2.08;;;0.93;;
74658;SDS011;63186;51.204;6.536;2023-04-24T12:34:22;1.83;;;1.10;;
74658;SDS011;63186;51.204;6.536;2023-04-24T12:36:48;0.90;;;0.73;;
74658;SDS011;63186;51.204;6.536;2023-04-24T12:39:19;2.57;;;1.20;;
74658;SDS011;63186;51.204;6.536;2023-04-24T12:41:57;2.38;;;0.95;;
74658;SDS011;63186;51.204;6.536;2023-04-24T12:44:32;1.05;;;0.77;;
74658;SDS011;63186;51.204;6.536;2023-04-24T12:46:59;4.35;;;1.38;;
74658;SDS011;63186;51.204;6.536;2023-04-24T12:49:24;2.05;;;1.17;;
74658;SDS011;63186;51.204;6.536;2023-04-24T12:51:49;1.37;;;0.70;;
74658;SDS011;63186;51.204;6.536;2023-04-24T12:54:14;1.73;;;1.00;;
74658;SDS011;63186;51.204;6.536;2023-04-24T12:56:40;2.63;;;1.48;;
74658;SDS011;63186;51.204;6.536;2023-04-24T12:59:05;1.30;;;0.83;;
74658;SDS011;63186;51.204;6.536;2023-04-24T13:01:30;2.43;;;1.00;;
74658;SDS011;63186;51.204;6.536;2023-04-24T13:03:55;2.25;;;1.13;;
74658;SDS011;63186;51.204;6.536;2023-04-24T13:06:21;1.90;;;1.10;;
74658;SDS011;63186;51.204;6.536;2023-04-24T13:08:46;2.20;;;0.98;;
74658;SDS011;63186;51.204;6.536;2023-04-24T13:11:12;2.60;;;1.23;;
74658;SDS011;63186;51.204;6.536;2023-04-24T13:13:38;2.85;;;0.82;;
74658;SDS011;63186;51.204;6.536;2023-04-24T13:16:03;3.00;;;1.17;;
74658;SDS011;63186;51.204;6.536;2023-04-24T13:18:28;3.17;;;1.10;;
74658;SDS011;63186;51.204;6.536;2023-04-24T13:20:53;2.73;;;0.97;;
74658;SDS011;63186;51.204;6.536;2023-04-24T13:23:18;2.97;;;1.23;;
74658;SDS011;63186;51.204;6.536;2023-04-24T13:25:44;4.10;;;1.47;;
74658;SDS011;63186;51.204;6.536;2023-04-24T13:28:09;1.63;;;1.02;;
74658;SDS011;63186;51.204;6.536;2023-04-24T13:30:34;2.17;;;1.30;;
74658;SDS011;63186;51.204;6.536;2023-04-24T13:33:00;5.72;;;1.17;;
74658;SDS011;63186;51.204;6.536;2023-04-24T13:35:25;0.70;;;0.70;;
74658;SDS011;63186;51.204;6.536;2023-04-24T13:37:50;2.50;;;1.20;;
74658;SDS011;63186;51.204;6.536;2023-04-24T13:40:15;5.20;;;1.20;;
74658;SDS011;63186;51.204;6.536;2023-04-24T13:42:40;3.13;;;0.88;;
74658;SDS011;63186;51.204;6.536;2023-04-24T13:45:06;6.33;;;1.40;;
74658;SDS011;63186;51.204;6.536;2023-04-24T13:47:31;2.63;;;1.33;;
74658;SDS011;63186;51.204;6.536;2023-04-24T13:49:56;2.73;;;1.33;;
74658;SDS011;63186;51.204;6.536;2023-04-24T13:52:21;2.03;;;0.93;;
74658;SDS011;63186;51.204;6.536;2023-04-24T13:54:47;3.93;;;1.60;;
74658;SDS011;63186;51.204;6.536;2023-04-24T13:57:13;3.97;;;1.30;;
74658;SDS011;63186;51.204;6.536;2023-04-24T13:59:38;2.83;;;1.33;;
74658;SDS011;63186;51.204;6.536;2023-04-24T14:02:03;2.70;;;1.30;;
74658;SDS011;63186;51.204;6.536;2023-04-24T14:04:29;4.07;;;1.20;;
74658;SDS011;63186;51.204;6.536;2023-04-24T14:06:54;1.23;;;1.07;;
74658;SDS011;63186;51.204;6.536;2023-04-24T14:09:19;3.67;;;1.57;;
74658;SDS011;63186;51.204;6.536;2023-04-24T14:11:44;4.57;;;1.90;;
74658;SDS011;63186;51.204;6.536;2023-04-24T14:14:10;2.27;;;0.87;;
74658;SDS011;63186;51.204;6.536;2023-04-24T14:16:35;8.60;;;1.27;;
74658;SDS011;63186;51.204;6.536;2023-04-24T14:19:00;3.30;;;1.10;;
74658;SDS011;63186;51.204;6.536;2023-04-24T14:21:25;1.47;;;0.83;;
74658;SDS011;63186;51.204;6.536;2023-04-24T14:23:50;2.07;;;1.20;;
74658;SDS011;63186;51.204;6.536;2023-04-24T14:26:16;2.40;;;1.10;;
74658;SDS011;63186;51.204;6.536;2023-04-24T14:28:41;1.83;;;1.07;;
74658;SDS011;63186;51.204;6.536;2023-04-24T14:31:06;1.23;;;0.90;;
74658;SDS011;63186;51.204;6.536;2023-04-24T14:33:32;0.70;;;0.70;;
74658;SDS011;63186;51.204;6.536;2023-04-24T14:35:57;1.37;;;0.97;;
74658;SDS011;63186;51.204;6.536;2023-04-24T14:38:22;1.53;;;0.90;;
74658;SDS011;63186;51.204;6.536;2023-04-24T14:40:47;2.03;;;1.30;;
74658;SDS011;63186;51.204;6.536;2023-04-24T14:43:12;2.57;;;1.20;;